Time;durP1;ratioP1;P1;durP2;ratioP2;P2;SDS_P1;SDS_P2;PMS_P1;PMS_P2;Temp;Humidity;BMP_temperature;BMP_pressure;BME280_temperature;BME280_humidity;BME280_pressure;Samples;Min_cycle;Max_cycle;Signal;HPM_P1;HPM_P2
2021/08/15 00:00:32;;;;;;;10.43;8.13;;;;;;;23.05;53.99;101579.06;5033191;28;20181;-60
2021/08/15 00:02:58;;;;;;;14.30;8.07;;;;;;;22.99;53.95;101589.53;5033030;28;20185;-60
2021/08/15 00:05:23;;;;;;;11.03;8.43;;;;;;;22.98;53.97;101585.16;5032863;28;20201;-62
2021/08/15 00:07:49;;;;;;;11.33;8.13;;;;;;;22.94;54.22;101585.38;5032977;28;20183;-60
2021/08/15 00:10:15;;;;;;;16.93;8.37;;;;;;;22.52;54.34;101516.47;5032779;28;20659;-60
2021/08/15 00:12:41;;;;;;;14.67;8.33;;;;;;;22.86;54.68;101570.09;5031553;28;20642;-60
2021/08/15 00:15:08;;;;;;;17.03;8.83;;;;;;;22.78;53.89;101576.66;5032858;28;20181;-60
2021/08/15 00:17:34;;;;;;;16.97;8.53;;;;;;;22.56;53.97;101556.59;5032668;28;20180;-60
2021/08/15 00:19:59;;;;;;;18.33;8.27;;;;;;;22.68;54.64;101578.81;5032719;28;20246;-60
2021/08/15 00:22:25;;;;;;;13.13;8.70;;;;;;;22.18;56.01;101484.13;5032689;28;20215;-60
2021/08/15 00:24:51;;;;;;;13.83;8.23;;;;;;;22.70;56.77;101573.47;5032641;28;20262;-60
2021/08/15 00:27:17;;;;;;;12.87;8.03;;;;;;;22.71;56.31;101577.06;5032235;28;20242;-60
2021/08/15 00:29:42;;;;;;;12.40;7.87;;;;;;;22.65;57.04;101576.22;5032617;28;20176;-60
2021/08/15 00:32:08;;;;;;;13.80;8.10;;;;;;;22.71;56.18;101568.59;5031161;28;20185;-60
2021/08/15 00:34:34;;;;;;;14.07;8.00;;;;;;;22.68;55.82;101563.94;5032478;28;20238;-60
2021/08/15 00:36:59;;;;;;;12.97;7.73;;;;;;;22.69;55.91;101573.97;5032370;28;20181;-60
2021/08/15 00:39:25;;;;;;;12.03;7.67;;;;;;;22.63;55.75;101562.56;5032198;28;20181;-60
2021/08/15 00:41:50;;;;;;;14.13;8.20;;;;;;;22.73;55.84;101571.72;5032338;28;20582;-60
2021/08/15 00:44:16;;;;;;;14.63;8.43;;;;;;;22.32;57.03;101533.34;5032039;28;20295;-60
2021/08/15 00:46:42;;;;;;;9.80;7.80;;;;;;;22.43;56.61;101568.19;5032172;28;20243;-60
2021/08/15 00:49:08;;;;;;;11.93;8.10;;;;;;;22.42;56.15;101568.69;5032110;28;20234;-60
2021/08/15 00:51:33;;;;;;;11.93;7.80;;;;;;;22.28;56.41;101563.84;5032172;28;20181;-60
2021/08/15 00:53:59;;;;;;;13.50;7.80;;;;;;;22.20;56.55;101557.03;5032086;28;20173;-60
2021/08/15 00:56:25;;;;;;;13.17;7.80;;;;;;;22.32;55.97;101567.25;5032064;28;20176;-60
2021/08/15 00:58:51;;;;;;;10.63;7.17;;;;;;;21.87;56.25;101502.91;5032139;28;20185;-60
2021/08/15 01:01:20;;;;;;;14.17;7.93;;;;;;;21.99;57.29;101513.88;5031978;28;20314;-60
2021/08/15 01:03:45;;;;;;;11.57;7.60;;;;;;;22.33;57.68;101563.94;5030593;28;20674;-60
2021/08/15 01:06:11;;;;;;;11.13;7.80;;;;;;;22.26;57.86;101557.91;5031737;28;20180;-60
2021/08/15 01:08:37;;;;;;;9.57;7.00;;;;;;;21.82;58.11;101509.22;5032305;28;20270;-60
2021/08/15 01:11:05;;;;;;;12.03;7.50;;;;;;;22.22;57.69;101566.56;5031142;28;20677;-60
2021/08/15 01:13:35;;;;;;;14.17;7.70;;;;;;;21.70;57.48;101499.78;5031832;28;20177;-60
2021/08/15 01:16:02;;;;;;;11.23;7.30;;;;;;;21.97;56.88;101564.41;5031840;28;20200;-60
2021/08/15 01:18:31;;;;;;;11.97;6.63;;;;;;;22.01;56.40;101576.25;5031875;28;20220;-60
2021/08/15 01:21:05;;;;;;;15.13;7.57;;;;;;;22.03;56.49;101581.41;5031678;28;20243;-60
2021/08/15 01:23:32;;;;;;;10.87;6.90;;;;;;;22.04;56.63;101578.09;5030375;28;20273;-60
2021/08/15 01:26:00;;;;;;;9.67;6.97;;;;;;;21.92;56.71;101582.00;5031659;28;20173;-60
2021/08/15 01:28:26;;;;;;;10.40;7.27;;;;;;;21.87;56.63;101562.94;5031785;28;20639;-60
2021/08/15 01:30:51;;;;;;;10.03;7.10;;;;;;;22.02;56.70;101577.81;5031605;28;20187;-60
2021/08/15 01:33:24;;;;;;;9.80;7.23;;;;;;;22.01;56.19;101572.66;5031415;28;20716;-59
2021/08/15 01:35:51;;;;;;;8.20;6.57;;;;;;;21.96;56.63;101567.69;5031576;28;20181;-60
2021/08/15 01:38:17;;;;;;;13.00;7.23;;;;;;;21.90;55.88;101575.31;5031360;28;20184;-60
2021/08/15 01:40:42;;;;;;;12.93;7.73;;;;;;;21.43;55.85;101510.56;5031490;28;20251;-60
2021/08/15 01:43:08;;;;;;;11.40;7.33;;;;;;;21.86;55.84;101575.47;5031350;28;20233;-60
2021/08/15 01:45:33;;;;;;;11.33;8.43;;;;;;;21.83;56.02;101570.81;5031367;28;20745;-60
2021/08/15 01:47:58;;;;;;;14.80;8.23;;;;;;;21.80;56.31;101565.38;5031391;28;20188;-60
2021/08/15 01:50:24;;;;;;;13.17;8.60;;;;;;;21.62;56.47;101562.72;5031417;28;20234;-60
2021/08/15 01:52:49;;;;;;;9.43;7.83;;;;;;;21.69;56.64;101565.97;5031247;28;20189;-60
2021/08/15 01:55:15;;;;;;;13.43;8.90;;;;;;;21.32;56.57;101510.38;5031233;28;20173;-59
2021/08/15 01:57:40;;;;;;;12.93;8.40;;;;;;;21.68;56.74;101569.22;5031014;28;20579;-62
2021/08/15 02:00:06;;;;;;;12.50;9.13;;;;;;;21.65;56.88;101568.16;5031197;28;20204;-60
2021/08/15 02:02:32;;;;;;;11.20;8.53;;;;;;;21.65;56.70;101561.75;5031239;28;20180;-59
2021/08/15 02:04:57;;;;;;;12.50;8.53;;;;;;;21.64;56.75;101565.84;5031211;28;20256;-60
2021/08/15 02:07:24;;;;;;;10.67;8.83;;;;;;;21.16;56.93;101499.56;5031123;28;20196;-60
2021/08/15 02:09:50;;;;;;;15.80;8.97;;;;;;;21.56;57.02;101570.31;5031177;28;20668;-59
2021/08/15 02:12:15;;;;;;;11.87;8.80;;;;;;;20.80;56.50;101472.47;5031034;28;20180;-60
2021/08/15 02:14:41;;;;;;;11.83;7.40;;;;;;;21.34;56.34;101578.34;5031151;28;20177;-59
2021/08/15 02:17:06;;;;;;;12.70;9.27;;;;;;;20.55;56.80;101503.19;5030918;28;20311;-59
2021/08/15 02:19:33;;;;;;;11.73;9.00;;;;;;;20.99;57.21;101577.41;5029854;28;20234;-59
2021/08/15 02:21:58;;;;;;;12.20;8.83;;;;;;;20.98;57.00;101579.41;5033983;28;20192;-60
2021/08/15 02:24:24;;;;;;;12.13;9.50;;;;;;;20.49;57.21;101514.34;5034955;28;20202;-60
2021/08/15 02:26:50;;;;;;;12.13;8.90;;;;;;;20.96;57.47;101576.31;5034847;28;20187;-59
2021/08/15 02:29:15;;;;;;;12.30;9.50;;;;;;;20.82;57.71;101579.81;5034675;28;20226;-60
2021/08/15 02:31:41;;;;;;;13.83;8.67;;;;;;;20.80;57.94;101582.34;5034588;28;20237;-60
2021/08/15 02:34:06;;;;;;;13.40;8.70;;;;;;;20.04;58.08;101483.59;5034782;28;20177;-60
2021/08/15 02:36:31;;;;;;;11.97;9.13;;;;;;;20.66;57.94;101585.88;5034729;28;20727;-59
2021/08/15 02:38:57;;;;;;;13.07;8.73;;;;;;;20.26;58.51;101546.06;5034660;28;20182;-60
2021/08/15 02:41:23;;;;;;;12.27;9.10;;;;;;;20.43;58.85;101581.00;5034564;28;20183;-59
2021/08/15 02:43:48;;;;;;;12.83;8.77;;;;;;;20.34;58.55;101561.34;5034425;28;20258;-59
2021/08/15 02:46:14;;;;;;;10.97;8.20;;;;;;;20.48;58.64;101579.56;5033257;28;20558;-59
2021/08/15 02:48:39;;;;;;;10.87;8.67;;;;;;;20.45;58.58;101583.34;5033268;28;20177;-60
2021/08/15 02:51:05;;;;;;;10.97;8.20;;;;;;;20.46;58.90;101582.09;5033051;28;20190;-62
2021/08/15 02:53:30;;;;;;;17.20;9.00;;;;;;;20.39;58.73;101569.16;5034422;28;20214;-60
2021/08/15 02:55:56;;;;;;;16.20;8.33;;;;;;;20.32;58.63;101577.16;5034396;28;20188;-59
2021/08/15 02:58:21;;;;;;;12.00;8.60;;;;;;;19.95;58.84;101513.81;5034238;28;20201;-60
2021/08/15 03:00:46;;;;;;;13.17;8.70;;;;;;;20.48;58.59;101585.22;5034361;28;20187;-59
2021/08/15 03:03:12;;;;;;;13.73;8.50;;;;;;;20.55;58.27;101584.84;5034098;28;20178;-62
2021/08/15 03:05:37;;;;;;;12.67;8.03;;;;;;;20.60;57.95;101579.34;5034388;28;20715;-61
2021/08/15 03:08:03;;;;;;;17.27;8.53;;;;;;;20.63;57.80;101581.19;5033932;28;20192;-59
2021/08/15 03:10:28;;;;;;;16.17;8.40;;;;;;;20.58;58.02;101586.72;5046564;28;20186;-59
2021/08/15 03:12:54;;;;;;;14.10;8.10;;;;;;;20.53;57.72;101588.13;5054114;28;20206;-59
2021/08/15 03:15:19;;;;;;;12.43;8.10;;;;;;;20.53;57.86;101587.38;5048998;28;20268;-60
2021/08/15 03:17:45;;;;;;;13.03;7.83;;;;;;;20.47;58.10;101587.22;5031476;28;20193;-60
2021/08/15 03:20:11;;;;;;;14.47;8.10;;;;;;;20.47;58.16;101590.03;5033843;28;20189;-59
2021/08/15 03:22:36;;;;;;;12.17;8.00;;;;;;;20.41;58.68;101585.56;5033918;28;20191;-59
2021/08/15 03:25:02;;;;;;;13.43;8.17;;;;;;;20.43;58.49;101592.28;5033792;28;20567;-61
2021/08/15 03:27:28;;;;;;;10.70;7.93;;;;;;;20.44;58.58;101591.00;5033794;28;20181;-59
2021/08/15 03:29:53;;;;;;;14.67;7.40;;;;;;;20.37;58.72;101582.91;5033796;28;20187;-59
2021/08/15 03:32:19;;;;;;;15.97;7.73;;;;;;;20.02;58.40;101550.84;5032972;28;20561;-59
2021/08/15 03:34:44;;;;;;;12.07;8.10;;;;;;;19.92;58.84;101537.28;5033582;28;20175;-60
2021/08/15 03:37:10;;;;;;;13.60;8.70;;;;;;;20.32;58.73;101602.50;5033531;28;20716;-60
2021/08/15 03:39:35;;;;;;;13.27;8.37;;;;;;;20.47;58.30;101609.00;5033525;28;20270;-61
2021/08/15 03:42:01;;;;;;;14.07;7.93;;;;;;;20.50;58.17;101608.81;5032390;28;20188;-59
2021/08/15 03:44:29;;;;;;;15.23;7.80;;;;;;;20.44;58.19;101593.84;5033104;28;20235;-59
2021/08/15 03:46:55;;;;;;;15.77;8.03;;;;;;;20.47;58.34;101620.25;5033477;28;20183;-61
2021/08/15 03:49:20;;;;;;;12.30;8.20;;;;;;;20.29;58.30;101586.53;5033417;28;20207;-59
2021/08/15 03:51:46;;;;;;;11.87;7.80;;;;;;;20.09;57.90;101558.97;5033435;28;20538;-60
2021/08/15 03:54:11;;;;;;;13.73;8.10;;;;;;;20.48;57.69;101611.34;5033274;28;20200;-61
2021/08/15 03:56:36;;;;;;;14.23;8.53;;;;;;;20.59;57.65;101614.41;5033547;28;20245;-61
2021/08/15 03:59:02;;;;;;;12.80;7.70;;;;;;;20.60;57.73;101621.59;5032042;28;20186;-59
2021/08/15 04:01:27;;;;;;;16.53;8.43;;;;;;;20.66;57.79;101630.94;5033110;28;20266;-59
2021/08/15 04:03:53;;;;;;;13.77;7.77;;;;;;;20.70;57.69;101630.75;5033166;28;20223;-61
2021/08/15 04:06:22;;;;;;;10.13;7.37;;;;;;;20.59;57.53;101610.78;5033074;28;20234;-61
2021/08/15 04:08:50;;;;;;;11.33;7.97;;;;;;;20.73;57.59;101632.63;5032948;28;20183;-59
2021/08/15 04:11:17;;;;;;;10.77;7.77;;;;;;;20.54;57.42;101609.44;5033000;28;20191;-59
2021/08/15 04:13:42;;;;;;;11.93;8.50;;;;;;;20.31;57.41;101553.09;5033023;28;20215;-61
2021/08/15 04:16:08;;;;;;;17.83;8.80;;;;;;;20.83;56.84;101622.88;5032853;28;20233;-61
2021/08/15 04:18:33;;;;;;;12.23;8.23;;;;;;;20.82;57.20;101633.34;5033013;28;20199;-62
2021/08/15 04:20:59;;;;;;;15.87;8.13;;;;;;;20.91;57.49;101633.34;5032760;28;20278;-61
2021/08/15 04:23:26;;;;;;;14.50;8.47;;;;;;;20.98;57.45;101635.78;5032793;28;20181;-61
2021/08/15 04:25:52;;;;;;;13.83;7.90;;;;;;;21.03;57.48;101632.31;5031513;28;20642;-61
2021/08/15 04:28:17;;;;;;;14.07;8.13;;;;;;;21.07;56.94;101635.72;5032651;28;20274;-61
2021/08/15 04:30:43;;;;;;;14.77;9.00;;;;;;;20.72;57.04;101586.78;5032746;28;20175;-61
2021/08/15 04:33:08;;;;;;;12.63;8.83;;;;;;;21.14;56.69;101637.41;5032378;28;20188;-62
2021/08/15 04:35:34;;;;;;;11.53;8.40;;;;;;;21.16;56.73;101637.69;5032566;28;20183;-61
2021/08/15 04:37:59;;;;;;;13.80;8.27;;;;;;;21.13;56.57;101628.16;5032510;28;20180;-62
2021/08/15 04:40:25;;;;;;;17.37;8.77;;;;;;;20.96;56.45;101601.69;5032330;28;20600;-61
2021/08/15 04:42:50;;;;;;;14.53;8.77;;;;;;;21.19;56.38;101636.75;5032381;28;20319;-62
2021/08/15 04:45:16;;;;;;;14.20;8.80;;;;;;;21.38;55.86;101646.59;5031297;28;20232;-61
2021/08/15 04:47:41;;;;;;;17.17;9.67;;;;;;;21.37;55.67;101634.56;5032377;28;20698;-61
2021/08/15 04:50:07;;;;;;;17.20;9.37;;;;;;;21.51;55.81;101647.13;5032334;28;20624;-61
2021/08/15 04:52:33;;;;;;;16.73;9.40;;;;;;;21.40;55.94;101630.00;5032136;28;20188;-61
2021/08/15 04:54:58;;;;;;;15.13;9.30;;;;;;;21.66;55.76;101650.75;5032179;28;20180;-61
2021/08/15 04:57:23;;;;;;;14.33;9.77;;;;;;;21.37;55.87;101602.75;5032015;28;20595;-62
2021/08/15 04:59:49;;;;;;;16.70;9.40;;;;;;;21.75;55.88;101647.88;5032101;28;20212;-61
2021/08/15 05:02:15;;;;;;;13.80;8.80;;;;;;;21.80;55.20;101644.38;5031990;28;20235;-62
2021/08/15 05:04:40;;;;;;;13.90;8.93;;;;;;;21.85;55.06;101643.72;5031933;28;20238;-62
2021/08/15 05:07:05;;;;;;;14.17;9.37;;;;;;;21.91;55.07;101647.41;5029042;28;20274;-62
2021/08/15 05:09:31;;;;;;;15.33;9.10;;;;;;;21.82;56.00;101617.25;5031897;28;20185;-62
2021/08/15 05:11:57;;;;;;;14.07;9.20;;;;;;;22.14;56.51;101649.34;5031874;28;20662;-62
2021/08/15 05:14:22;;;;;;;15.73;9.30;;;;;;;22.24;56.48;101651.59;5031941;28;20235;-62
2021/08/15 05:16:48;;;;;;;12.47;8.90;;;;;;;22.36;56.22;101649.72;5030522;28;20689;-62
2021/08/15 05:19:13;;;;;;;11.43;8.77;;;;;;;22.48;55.43;101662.78;5031761;28;20219;-62
2021/08/15 05:21:39;;;;;;;14.13;9.13;;;;;;;22.17;55.70;101595.53;5031850;28;20226;-62
2021/08/15 05:24:05;;;;;;;14.27;9.00;;;;;;;22.72;55.60;101657.75;5030296;28;20638;-62
2021/08/15 05:26:30;;;;;;;14.37;9.43;;;;;;;22.54;55.37;101618.44;5031787;28;20173;-62
2021/08/15 05:28:56;;;;;;;13.87;9.20;;;;;;;22.94;55.56;101666.56;5031502;28;20268;-62
2021/08/15 05:31:21;;;;;;;15.40;9.37;;;;;;;22.67;55.01;101611.19;5026865;28;20273;-62
2021/08/15 05:33:47;;;;;;;11.83;9.27;;;;;;;23.13;54.73;101665.03;5031548;28;20193;-62
2021/08/15 05:36:12;;;;;;;12.90;9.10;;;;;;;23.24;54.95;101659.53;5031618;28;20673;-62
2021/08/15 05:38:38;;;;;;;11.93;9.63;;;;;;;23.30;54.77;101655.50;5031467;28;20177;-62
2021/08/15 05:41:03;;;;;;;14.07;8.77;;;;;;;23.46;54.49;101665.44;5031285;28;20192;-62
2021/08/15 05:43:29;;;;;;;12.53;9.07;;;;;;;23.34;54.09;101624.19;5031379;28;20307;-62
2021/08/15 05:45:54;;;;;;;11.07;8.93;;;;;;;23.72;53.84;101666.25;5031274;28;20298;-61
2021/08/15 05:48:20;;;;;;;13.83;9.40;;;;;;;23.73;54.08;101665.78;5031173;28;20230;-62
2021/08/15 05:50:46;;;;;;;12.60;9.03;;;;;;;23.74;54.33;101641.84;5031359;28;20173;-62
2021/08/15 05:53:11;;;;;;;12.53;9.10;;;;;;;23.73;53.97;101617.66;5029778;28;20181;-62
2021/08/15 05:55:36;;;;;;;12.37;10.00;;;;;;;24.13;53.79;101659.22;5030952;28;20181;-62
2021/08/15 05:58:02;;;;;;;12.73;8.97;;;;;;;24.22;53.60;101659.84;5031204;28;20212;-62
2021/08/15 06:00:28;;;;;;;13.80;9.07;;;;;;;24.33;53.03;101654.28;5031179;28;20190;-62
2021/08/15 06:02:53;;;;;;;15.40;8.90;;;;;;;24.18;53.11;101601.88;5031171;28;20181;-61
2021/08/15 06:05:19;;;;;;;12.37;8.63;;;;;;;24.17;52.89;101581.28;5031032;28;20208;-62
2021/08/15 06:07:44;;;;;;;14.60;9.10;;;;;;;24.62;52.84;101647.56;5029651;28;20199;-61
2021/08/15 06:10:10;;;;;;;13.07;8.77;;;;;;;24.37;52.59;101598.13;5030887;28;20183;-62
2021/08/15 06:12:37;;;;;;;12.03;8.80;;;;;;;24.84;52.65;101647.69;5031044;28;20201;-62
2021/08/15 06:15:05;;;;;;;14.00;9.53;;;;;;;24.96;51.99;101641.56;5029633;28;20561;-62
2021/08/15 06:17:31;;;;;;;13.63;8.50;;;;;;;24.90;51.00;101622.97;5028305;28;20181;-61
2021/08/15 06:19:58;;;;;;;10.43;8.10;;;;;;;25.12;51.12;101648.63;5030830;28;20253;-62
2021/08/15 06:22:24;;;;;;;12.77;8.53;;;;;;;25.05;51.95;101640.59;5031025;28;20173;-62
2021/08/15 06:24:49;;;;;;;11.13;8.60;;;;;;;25.11;51.60;101647.06;5030816;28;20213;-62
2021/08/15 06:27:15;;;;;;;10.10;7.83;;;;;;;25.22;50.56;101647.09;5030688;28;20242;-62
2021/08/15 06:29:40;;;;;;;16.17;8.60;;;;;;;25.36;49.67;101651.84;5030896;28;20181;-61
2021/08/15 06:32:06;;;;;;;13.20;8.00;;;;;;;25.50;49.73;101645.19;5030598;28;20246;-61
2021/08/15 06:34:32;;;;;;;10.90;8.40;;;;;;;25.33;49.78;101602.56;5030969;28;20169;-61
2021/08/15 06:36:57;;;;;;;12.27;7.97;;;;;;;25.74;49.78;101646.28;5030593;28;20185;-61
2021/08/15 06:39:23;;;;;;;13.63;7.77;;;;;;;25.87;49.12;101640.88;5030549;28;20185;-59
2021/08/15 06:41:48;;;;;;;15.00;8.17;;;;;;;26.02;49.08;101643.50;5030638;28;20344;-61
2021/08/15 06:44:14;;;;;;;15.17;8.13;;;;;;;26.07;48.78;101645.56;5030269;28;20236;-60
2021/08/15 06:46:40;;;;;;;11.50;7.23;;;;;;;26.16;46.78;101640.41;5030790;28;20662;-61
2021/08/15 06:49:05;;;;;;;11.57;8.17;;;;;;;26.28;46.92;101649.72;5030761;28;20185;-62
2021/08/15 06:51:31;;;;;;;13.93;7.40;;;;;;;26.40;47.17;101654.88;5030430;28;20690;-59
2021/08/15 06:53:56;;;;;;;12.63;7.90;;;;;;;26.34;46.86;101625.69;5030576;28;20180;-59
2021/08/15 06:56:22;;;;;;;10.73;7.23;;;;;;;26.61;46.49;101649.72;5030274;28;20204;-60
2021/08/15 06:58:49;;;;;;;12.67;7.77;;;;;;;26.51;46.60;101632.13;5030367;28;20185;-59
2021/08/15 07:01:15;;;;;;;11.03;7.37;;;;;;;26.25;46.14;101576.88;5030439;28;20181;-61
2021/08/15 07:03:40;;;;;;;11.17;7.27;;;;;;;26.85;45.80;101639.31;5030350;28;20177;-60
2021/08/15 07:06:06;;;;;;;13.43;7.90;;;;;;;26.96;46.00;101641.34;5030530;28;20181;-60
2021/08/15 07:08:31;;;;;;;12.83;7.53;;;;;;;27.07;45.82;101647.03;5032079;28;20196;-59
2021/08/15 07:10:57;;;;;;;11.93;6.83;;;;;;;27.13;45.24;101639.25;5033900;28;20184;-59
2021/08/15 07:13:22;;;;;;;12.30;8.03;;;;;;;27.11;44.59;101639.75;5033720;28;20576;-61
2021/08/15 07:15:52;;;;;;;11.80;7.87;;;;;;;27.09;44.94;101642.38;5034127;28;20177;-61
2021/08/15 07:18:19;;;;;;;13.90;8.00;;;;;;;27.10;44.65;101638.22;5033615;28;20181;-60
2021/08/15 07:20:45;;;;;;;12.03;7.70;;;;;;;27.07;44.78;101638.50;5032396;28;20192;-60
2021/08/15 07:23:11;;;;;;;10.90;7.27;;;;;;;27.23;44.98;101637.69;5033568;28;20183;-60
2021/08/15 07:25:37;;;;;;;11.87;7.77;;;;;;;26.84;44.63;101600.81;5033635;28;20786;-59
2021/08/15 07:28:03;;;;;;;14.70;7.33;;;;;;;26.95;44.77;101619.88;5033276;28;20267;-59
2021/08/15 07:30:29;;;;;;;14.40;7.60;;;;;;;27.10;44.85;101635.38;5033564;28;20173;-61
2021/08/15 07:33:00;;;;;;;15.13;7.93;;;;;;;27.34;44.47;101632.69;5033431;28;20431;-59
2021/08/15 07:35:27;;;;;;;12.90;7.73;;;;;;;27.12;44.15;101570.16;5033450;28;20177;-61
2021/08/15 07:37:53;;;;;;;13.57;8.70;;;;;;;27.45;43.42;101629.03;5033151;28;20184;-62
2021/08/15 07:40:19;;;;;;;13.30;8.17;;;;;;;27.04;44.76;101579.78;5033296;28;20177;-61
2021/08/15 07:42:53;;;;;;;16.07;8.07;;;;;;;27.46;44.41;101622.03;5033308;28;20229;-60
2021/08/15 07:45:20;;;;;;;11.63;7.83;;;;;;;27.34;43.98;101618.44;5037971;28;20219;-62
2021/08/15 07:47:46;;;;;;;15.93;8.57;;;;;;;27.30;44.51;101617.19;5033098;28;20173;-61
2021/08/15 07:50:12;;;;;;;16.77;8.10;;;;;;;27.27;43.59;101619.00;5033095;28;20185;-60
2021/08/15 07:52:38;;;;;;;13.53;7.67;;;;;;;27.26;43.53;101617.47;5033049;28;20728;-61
2021/08/15 07:55:04;;;;;;;10.97;7.50;;;;;;;27.51;42.51;101618.38;5033058;28;20202;-59
2021/08/15 07:57:33;;;;;;;13.47;7.97;;;;;;;27.26;42.36;101546.31;5032910;28;20689;-59
2021/08/15 07:59:59;;;;;;;11.68;7.78;;;;;;;27.61;42.15;101580.53;5032957;28;20574;-59
2021/08/15 08:02:25;;;;;;;10.53;7.67;;;;;;;27.89;41.75;101617.38;5033022;28;20181;-62
2021/08/15 08:04:51;;;;;;;10.80;7.18;;;;;;;28.14;40.96;101616.16;5032953;28;20279;-60
2021/08/15 08:07:22;;;;;;;12.73;7.40;;;;;;;28.33;40.86;101606.38;5032793;28;20207;-61
2021/08/15 08:09:48;;;;;;;10.23;6.90;;;;;;;28.43;39.86;101615.38;5032699;28;20246;-60
2021/08/15 08:12:15;;;;;;;12.00;7.30;;;;;;;28.58;39.87;101602.28;5032819;28;20261;-59
2021/08/15 08:14:40;;;;;;;10.87;7.30;;;;;;;28.69;39.71;101612.78;5032765;28;20173;-60
2021/08/15 08:17:07;;;;;;;9.90;7.10;;;;;;;28.92;39.67;101608.38;5029218;28;20211;-60
2021/08/15 08:19:32;;;;;;;9.33;7.03;;;;;;;29.12;39.42;101602.19;5032700;28;20654;-59
2021/08/15 08:21:58;;;;;;;12.97;7.20;;;;;;;29.27;38.64;101608.22;5032606;28;20243;-60
2021/08/15 08:24:24;;;;;;;12.95;7.60;;;;;;;29.19;39.25;101610.94;5032466;28;20212;-60
2021/08/15 08:26:49;;;;;;;9.02;6.70;;;;;;;28.87;39.32;101547.19;5031322;28;20192;-60
2021/08/15 08:29:15;;;;;;;9.90;6.85;;;;;;;29.29;39.79;101599.88;5032295;28;20272;-62
2021/08/15 08:31:40;;;;;;;9.25;7.50;;;;;;;29.25;39.24;101577.34;5032396;28;20675;-60
2021/08/15 08:34:06;;;;;;;9.98;7.30;;;;;;;29.60;38.72;101591.44;5032394;28;20260;-60
2021/08/15 08:36:31;;;;;;;8.82;7.40;;;;;;;29.68;38.20;101588.72;5032138;28;20218;-60
2021/08/15 08:38:57;;;;;;;10.73;7.50;;;;;;;29.44;37.82;101523.09;5030999;28;20185;-60
2021/08/15 08:41:23;;;;;;;12.20;7.38;;;;;;;29.97;38.39;101576.28;5032223;28;20185;-60
2021/08/15 08:43:49;;;;;;;11.70;7.30;;;;;;;30.19;37.69;101582.41;5032124;28;20307;-60
2021/08/15 08:46:15;;;;;;;9.35;6.85;;;;;;;30.44;37.11;101583.00;5032268;28;20267;-60
2021/08/15 08:48:40;;;;;;;11.50;7.50;;;;;;;30.45;36.50;101576.72;5032095;28;20176;-62
2021/08/15 08:51:06;;;;;;;8.93;7.25;;;;;;;30.43;36.40;101584.31;5031912;28;20184;-61
2021/08/15 08:53:35;;;;;;;12.55;7.55;;;;;;;30.40;36.30;101569.03;5032071;28;20651;-61
2021/08/15 08:56:02;;;;;;;11.30;7.03;;;;;;;30.30;36.57;101570.78;5030787;28;20200;-61
2021/08/15 08:58:28;;;;;;;10.15;7.20;;;;;;;30.08;36.84;101516.84;5031965;28;20191;-61
2021/08/15 09:00:53;;;;;;;12.50;7.20;;;;;;;30.65;36.30;101563.88;5030613;28;20192;-61
2021/08/15 09:03:19;;;;;;;8.55;7.35;;;;;;;30.91;36.22;101563.91;5031957;28;20239;-60
2021/08/15 09:05:55;;;;;;;11.65;7.25;;;;;;;31.03;35.47;101551.66;5031757;28;20573;-60
2021/08/15 09:08:29;;;;;;;8.18;6.35;;;;;;;31.16;35.17;101528.72;5031587;28;20267;-61
2021/08/15 09:11:16;;;;;;;9.55;6.70;;;;;;;31.47;35.45;101547.81;5031807;28;20181;-60
2021/08/15 09:14:00;;;;;;;10.55;7.10;;;;;;;31.57;35.19;101543.13;5031790;28;20181;-61
2021/08/15 09:16:46;;;;;;;9.30;7.10;;;;;;;31.19;35.03;101506.78;5031696;28;20173;-60
2021/08/15 09:19:40;;;;;;;9.90;6.40;;;;;;;31.56;34.59;101533.00;5018723;28;20272;-61
2021/08/15 09:22:13;;;;;;;8.13;6.70;;;;;;;31.80;34.51;101535.59;5012155;28;20161;-61
2021/08/15 09:24:57;;;;;;;10.77;6.72;;;;;;;32.03;34.18;101527.94;5011983;28;20193;-62
2021/08/15 09:27:36;;;;;;;10.65;6.43;;;;;;;32.14;32.75;101518.28;5015818;28;20218;-61
2021/08/15 09:30:32;;;;;;;10.90;6.40;;;;;;;32.09;32.45;101522.81;5031584;28;20650;-60
2021/08/15 09:33:06;;;;;;;9.32;5.22;;;;;;;32.16;32.65;101512.75;5031400;28;20192;-60
2021/08/15 09:35:34;;;;;;;7.85;5.85;;;;;;;32.33;32.69;101510.97;5031863;28;20238;-60
2021/08/15 09:38:06;;;;;;;9.77;6.10;;;;;;;32.17;32.11;101512.19;5031446;28;20168;-60
2021/08/15 09:40:35;;;;;;;9.95;5.68;;;;;;;32.08;33.11;101500.44;5031265;28;20180;-60
2021/08/15 09:43:03;;;;;;;7.28;5.60;;;;;;;31.93;33.05;101437.28;5031331;28;20243;-60
2021/08/15 09:45:45;;;;;;;8.48;5.05;;;;;;;32.46;31.91;101499.38;5026651;28;20205;-60
2021/08/15 09:48:36;;;;;;;7.45;5.32;;;;;;;32.61;30.61;101492.97;5030169;28;20621;-60
2021/08/15 09:51:19;;;;;;;6.47;4.55;;;;;;;32.70;28.93;101492.47;5030122;28;20180;-60
2021/08/15 09:53:56;;;;;;;6.68;4.47;;;;;;;32.69;28.15;101488.81;5031183;28;20239;-61
2021/08/15 09:56:36;;;;;;;5.88;4.10;;;;;;;32.88;28.67;101485.66;5031041;28;20188;-60
2021/08/15 09:59:32;;;;;;;6.25;4.00;;;;;;;33.08;27.37;101485.56;5031318;28;20303;-60
2021/08/15 10:01:58;;;;;;;6.53;4.13;;;;;;;33.22;26.73;101481.19;5030813;28;20223;-60
2021/08/15 10:04:25;;;;;;;4.88;3.53;;;;;;;33.25;26.49;101470.66;5030933;28;20659;-60
2021/08/15 10:06:52;;;;;;;8.77;3.90;;;;;;;33.24;26.89;101472.00;5031078;28;20164;-60
2021/08/15 10:09:20;;;;;;;6.43;4.10;;;;;;;33.04;27.85;101415.47;5030995;28;20257;-60
2021/08/15 10:11:46;;;;;;;5.93;4.18;;;;;;;33.51;28.54;101465.38;5031093;28;20177;-60
2021/08/15 10:14:12;;;;;;;5.13;4.07;;;;;;;33.64;27.52;101464.41;5031367;28;20703;-60
2021/08/15 10:16:45;;;;;;;5.88;4.10;;;;;;;33.83;26.90;101456.97;5030663;28;20272;-60
2021/08/15 10:19:14;;;;;;;6.22;4.20;;;;;;;33.91;27.20;101460.63;5031048;28;20167;-60
2021/08/15 10:21:47;;;;;;;7.70;4.10;;;;;;;34.15;26.29;101451.34;5030950;28;20192;-60
2021/08/15 10:24:15;;;;;;;7.88;4.35;;;;;;;34.24;26.82;101450.78;5030750;28;20208;-60
2021/08/15 10:26:48;;;;;;;6.53;4.07;;;;;;;34.44;26.38;101432.53;5030970;28;20199;-60
2021/08/15 10:29:49;;;;;;;4.43;4.00;;;;;;;34.54;26.41;101435.56;5030664;28;20177;-60
2021/08/15 10:32:17;;;;;;;6.32;4.28;;;;;;;34.64;26.85;101436.47;5008735;28;20667;-60
2021/08/15 10:35:08;;;;;;;8.80;4.20;;;;;;;34.83;26.70;101431.03;5026466;28;20667;-60
2021/08/15 10:37:34;;;;;;;7.00;4.10;;;;;;;34.96;25.78;101433.66;5028085;28;20197;-60
2021/08/15 10:40:04;;;;;;;5.88;4.35;;;;;;;34.75;25.93;101402.25;5029707;28;20237;-60
2021/08/15 10:42:45;;;;;;;4.82;3.92;;;;;;;35.31;25.83;101424.63;5030931;28;20542;-60
2021/08/15 10:45:19;;;;;;;7.55;4.10;;;;;;;35.42;24.89;101420.53;5039081;28;20598;-60
2021/08/15 10:48:04;;;;;;;7.80;3.80;;;;;;;35.61;23.78;101415.75;5034394;28;20172;-60
2021/08/15 10:51:02;;;;;;;8.85;4.05;;;;;;;35.77;24.02;101407.75;5034232;28;20188;-62
2021/08/15 10:53:30;;;;;;;5.85;3.55;;;;;;;35.65;23.39;101409.56;5022187;28;20219;-60
2021/08/15 10:56:06;;;;;;;5.43;3.38;;;;;;;35.59;23.00;101394.63;5034277;28;20212;-60
2021/08/15 10:58:40;;;;;;;4.55;3.58;;;;;;;35.83;22.54;101406.13;5033794;28;20263;-60
2021/08/15 11:01:13;;;;;;;6.70;4.07;;;;;;;35.65;23.30;101352.66;5034066;28;20177;-60
2021/08/15 11:03:49;;;;;;;6.82;3.67;;;;;;;35.90;22.51;101398.78;5034129;28;20224;-60
2021/08/15 11:06:29;;;;;;;5.13;3.55;;;;;;;35.85;23.48;101394.78;5033987;28;20189;-60
2021/08/15 11:08:55;;;;;;;5.40;3.83;;;;;;;36.15;23.59;101388.69;5033676;28;20177;-60
2021/08/15 11:11:28;;;;;;;6.82;3.72;;;;;;;36.10;22.52;101391.84;5033703;28;20183;-60
2021/08/15 11:14:18;;;;;;;5.65;3.83;;;;;;;36.20;22.70;101381.94;5034031;28;20242;-60
2021/08/15 11:16:49;;;;;;;5.30;3.60;;;;;;;36.33;21.98;101378.69;5033665;28;20184;-60
2021/08/15 11:19:14;;;;;;;4.03;3.63;;;;;;;36.59;21.99;101372.19;5033672;28;20185;-60
2021/08/15 11:22:10;;;;;;;6.43;4.00;;;;;;;36.78;22.12;101372.34;5033423;28;20235;-60